Flight Track Log - Related Links

Times and Time Zones

All times are in EDT time to prevent confusion due to time zone crossing. See the EJA396 flight status page for this flight to view local times or setup timezone preferences in your user account.

Time Position Orientation Groundspeed Altitude Reporting Facility
EDT Latitude Longitude Course Direction KTS MPH feet Rate Location/Type
Mon 03:13:01 PM 45.6167 -61.4333 245° Southwest 160 184 6,200  Level Moncton Center
Mon 03:14:01 PM 45.6000 -61.4833 245° Southwest 170 196 10,900 4,400 Climbing Moncton Center
Mon 03:15:01 PM 45.5667 -61.5500 234° Southwest 200 230 15,000 3,750 Climbing Moncton Center
Mon 03:16:01 PM 45.5333 -61.6500 245° Southwest 240 276 18,400 3,550 Climbing Moncton Center
Mon 03:17:01 PM 45.5167 -61.7167 250° West 260 299 22,100 3,850 Climbing Moncton Center
Mon 03:18:01 PM 45.4833 -61.8167 245° Southwest 260 299 26,100 2,850 Climbing Moncton Center
Mon 03:19:01 PM 45.4500 -61.9167 245° Southwest 260 299 27,800 950 Climbing Moncton Center
Mon 03:20:01 PM 45.4000 -62.0333 239° Southwest 320 368 28,000 650 Climbing Moncton Center
Mon 03:21:01 PM 45.3500 -62.1833 245° Southwest 370 426 29,100 1,850 Climbing Moncton Center
Mon 03:22:01 PM 45.3000 -62.3000 239° Southwest 360 414 31,700 2,500 Climbing Moncton Center
Mon 03:23:01 PM 45.2667 -62.4167 248° West 350 403 34,100 2,400 Climbing Moncton Center
Mon 03:24:01 PM 45.2167 -62.5167 235° Southwest 330 380 36,500 1,850 Climbing Moncton Center
Mon 03:25:01 PM 45.1833 -62.6333 248° West 320 368 37,800 750 Climbing Moncton Center
Mon 03:26:01 PM 45.1500 -62.7667 251° West 330 380 38,000 100 Climbing Moncton Center
Mon 03:27:01 PM 45.1000 -62.9000 242° Southwest 360 414 38,000  Level Moncton Center
Mon 03:28:01 PM 45.0500 -63.0167 239° Southwest 370 426 38,000  Level Moncton Center
Mon 03:29:01 PM 45.0000 -63.1500 242° Southwest 370 426 38,000  Level Moncton Center
Mon 03:30:01 PM 44.9500 -63.2667 239° Southwest 360 414 38,000  Level Moncton Center
Mon 03:31:01 PM 44.9000 -63.4000 242° Southwest 370 426 38,000  Level Moncton Center
Mon 03:32:01 PM 44.8500 -63.5167 239° Southwest 370 426 38,000  Level Moncton Center
Mon 03:33:01 PM 44.8000 -63.6667 245° Southwest 370 426 38,000  Level Moncton Center
Mon 03:34:01 PM 44.7500 -63.7833 239° Southwest 370 426 38,000  Level Moncton Center
Mon 03:35:01 PM 44.7000 -63.9333 245° Southwest 370 426 38,000  Level Moncton Center
Mon 03:36:01 PM 44.6500 -64.0500 239° Southwest 370 426 38,000  Level Moncton Center
Mon 03:37:01 PM 44.6000 -64.1667 239° Southwest 370 426 38,000 550 Level Moncton Center
Mon 03:38:01 PM 44.5500 -64.2833 239° Southwest 370 426 39,100 1,000 Climbing Moncton Center
Mon 03:39:01 PM 44.5000 -64.4000 239° Southwest 360 414 40,000 450 Climbing Moncton Center
Mon 03:40:01 PM 44.4500 -64.5333 242° Southwest 360 414 40,000  Level Moncton Center
Mon 03:41:01 PM 44.4000 -64.6500 239° Southwest 370 426 40,000  Level Moncton Center
Mon 03:42:01 PM 44.3500 -64.8000 245° Southwest 370 426 40,000  Level Moncton Center
Mon 03:43:01 PM 44.3000 -64.9167 239° Southwest 370 426 40,000  Level Moncton Center
Mon 03:44:01 PM 44.2500 -65.0333 239° Southwest 360 414 40,000  Level Moncton Center
Mon 03:45:01 PM 44.2000 -65.1500 239° Southwest 360 414 40,000 100 Level Moncton Center
Mon 03:46:01 PM 44.1500 -65.2667 239° Southwest 360 414 40,200 600 Climbing Moncton Center
Mon 03:47:01 PM 44.1000 -65.4000 242° Southwest 350 403 41,200 1,000 Climbing Moncton Center
Mon 03:48:01 PM 44.0500 -65.4833 230° Southwest 350 403 42,200 900 Climbing Moncton Center
Mon 03:49:01 PM 44.0167 -65.6333 253° West 340 391 43,000 400 Climbing Moncton Center
Mon 03:50:01 PM 43.9667 -65.7167 230° Southwest 340 391 43,000  Level Moncton Center
Mon 03:51:01 PM 43.9167 -65.8333 239° Southwest 360 414 43,000  Level Moncton Center
Mon 03:52:01 PM 43.8500 -65.9667 235° Southwest 370 426 43,000  Level Moncton Center
Mon 03:53:01 PM 43.8000 -66.0833 239° Southwest 370 426 43,000  Level Moncton Center
Mon 03:54:01 PM 43.7667 -66.2333 253° West 370 426 43,000  Level Moncton Center
Mon 03:55:01 PM 43.7333 -66.3667 251° West 370 426 43,000  Level Moncton Center
Mon 03:56:01 PM 43.7000 -66.5000 251° West 370 426 43,000  Level Moncton Center
Mon 03:57:01 PM 43.6667 -66.6333 251° West 370 426 43,000  Level Moncton Center
Mon 03:58:01 PM 43.6667 -66.8000 270° West 370 426 43,000  Level Moncton Center
Mon 03:59:01 PM 43.6333 -66.9167 248° West 370 426 43,000  Level Moncton Center
Mon 04:00:01 PM 43.6167 -67.0667 261° West 360 414 43,000  Level Moncton Center
Mon 04:01:01 PM 43.6167 -67.1833 270° West 360 414 43,000  Level Moncton Center
Mon 04:01:45 PM 43.6161 -67.2883 270° West 372 428 43,000  Level Boston Center
Mon 04:02:45 PM 43.6014 -67.4244 262° West 372 428 43,000  Level Boston Center
Mon 04:03:45 PM 43.5864 -67.5633 262° West 372 428 43,000  Level Boston Center
Mon 04:04:45 PM 43.5714 -67.7022 262° West 372 428 43,000  Level Boston Center
Mon 04:05:45 PM 43.5583 -67.8381 262° West 372 428 43,000  Level Boston Center
Mon 04:06:45 PM 43.5428 -67.9711 261° West 372 428 43,000  Level Boston Center
Mon 04:07:45 PM 43.5269 -68.1067 261° West 372 428 43,000  Level Boston Center
Mon 04:08:45 PM 43.5133 -68.2425 262° West 372 428 43,000  Level Boston Center
Mon 04:09:57 PM 43.4947 -68.4211 262° West 372 428 43,000  Level Boston Center
Mon 04:10:57 PM 43.4786 -68.5569 261° West 372 428 43,000  Level Boston Center
Mon 04:11:57 PM 43.4622 -68.6925 261° West 372 428 43,000  Level Boston Center
Mon 04:12:57 PM 43.4478 -68.8250 262° West 372 428 43,000  Level Boston Center
Mon 04:13:57 PM 43.4292 -68.9606 259° West 372 428 43,000  Level Boston Center
Mon 04:14:57 PM 43.4144 -69.0956 262° West 372 428 43,000  Level Boston Center
Mon 04:15:57 PM 43.3975 -69.2339 260° West 367 422 43,000  Level Boston Center
Mon 04:16:56 PM 43.3836 -69.3375 260° West 367 422 43,000  Level Boston Center
Mon 04:17:57 PM 43.3650 -69.5011 261° West 367 422 43,000  Level Boston Center
Mon 04:18:57 PM 43.3536 -69.6244 263° West 362 417 43,000  Level Boston Center
Mon 04:20:08 PM 43.3300 -69.7742 258° West 362 417 43,000  Level Boston Center
Mon 04:21:09 PM 43.3108 -69.9347 261° West 367 422 43,000  Level Boston Center
Mon 04:22:09 PM 43.2928 -70.0753 260° West 372 428 43,000  Level Boston Center
Mon 04:23:09 PM 43.2808 -70.1956 262° West 372 428 43,000  Level Boston Center
Mon 04:24:09 PM 43.2625 -70.3272 259° West 372 428 43,000  Level Boston Center
Mon 04:25:09 PM 43.2442 -70.4647 260° West 372 428 43,000  Level Boston Center
Mon 04:26:09 PM 43.2275 -70.6022 261° West 372 428 43,000  Level Boston Center
Mon 04:27:09 PM 43.2089 -70.7367 259° West 372 428 43,000  Level Boston Center
Mon 04:28:09 PM 43.1942 -70.8681 261° West 367 422 43,000 -50 Level Boston Center
Mon 04:29:09 PM 43.1728 -71.0025 258° West 367 422 42,900 -500 Descending Boston Center
Mon 04:30:09 PM 43.1536 -71.1394 259° West 367 422 42,000 -1,200 Descending Boston Center
Mon 04:31:09 PM 43.1364 -71.2792 260° West 372 428 40,500 -1,600 Descending Boston Center
Mon 04:32:09 PM 43.1131 -71.4389 259° West 383 441 38,800 -1,450 Descending Boston Center
Mon 04:33:09 PM 43.0889 -71.5731 256° West 374 430 37,600 -1,250 Descending Boston Center
Mon 04:34:09 PM 43.0711 -71.7125 260° West 368 423 36,300 -1,350 Descending Boston Center
Mon 04:35:09 PM 43.0492 -71.8606 259° West 386 444 34,900 -1,350 Descending Boston Center
Mon 04:36:09 PM 43.0289 -72.0028 259° West 392 451 33,600 -1,600 Descending Boston Center
Mon 04:37:09 PM 43.0253 -72.1533 268° West 392 451 31,700 -1,950 Descending Boston Center
Mon 04:38:09 PM 43.0422 -72.2894 280° West 397 457 29,700 -2,050 Descending Boston Center
Mon 04:39:09 PM 43.0547 -72.4458 276° West 409 471 27,600 -1,866 Descending Boston Center
Mon 04:40:08 PM 43.0694 -72.5708 279° West 414 476 26,000 -1,300 Descending Boston Center
Mon 04:41:09 PM 43.0253 -72.7611 252° West 394 453 25,000 -496 Descending Boston Center
Mon 04:42:09 PM 42.9892 -72.9028 251° West 394 453 25,000 -200 Level Boston Center
Mon 04:43:09 PM 42.9594 -73.0331 253° West 400 460 24,600 -600 Descending Boston Center
Mon 04:44:09 PM 42.9233 -73.1689 250° West 400 460 23,800 -1,400 Descending Boston Center
Mon 04:45:09 PM 42.9014 -73.3131 258° West 394 453 21,800 -2,000 Descending Boston Center
Mon 04:46:09 PM 42.8650 -73.4456 249° West 394 453 19,800 -2,050 Descending Boston Center
Mon 04:47:09 PM 42.8178 -73.5836 245° Southwest 377 434 17,700 -1,900 Descending Boston Center
Mon 04:48:09 PM 42.7767 -73.7103 246° West 371 427 16,000 -850 Descending Boston Center
Mon 04:49:09 PM 42.7275 -73.8222 239° Southwest 376 433 16,000  Level Boston Center
Mon 04:50:09 PM 42.6369 -73.8908 209° Southwest 360 414 16,000  Level Boston Center
Mon 04:51:08 PM 42.5531 -73.9481 207° Southwest 373 429 16,000 -250 Level Boston Center
Mon 04:52:09 PM 42.4561 -74.0189 208° Southwest 378 435 15,500 -1,041 Descending Boston Center
Mon 04:53:09 PM 42.3592 -74.0922 209° Southwest 371 427 13,900 -1,550 Descending Boston Center
Mon 04:54:09 PM 42.2675 -74.0953 181° South 343 395 12,400 -870 Descending Boston Center
Mon 04:55:20 PM 42.1744 -74.0481 159° South 341 392 12,000 -136 Descending Boston Center
Mon 04:56:21 PM 42.0647 -73.9894 158° South 348 400 12,100 50 Climbing Boston Center
Mon 04:57:21 PM 41.9819 -73.9483 160° South 353 406 12,100  Level Boston Center
Mon 04:58:21 PM 41.8825 -73.8956 158° South 353 406 12,100  Level Boston Center
Mon 04:59:21 PM 41.7997 -73.8519 159° South 353 406 12,100 -150 Level Boston Center
Mon 05:00:21 PM 41.7025 -73.7997 158° South 347 399 11,800 -950 Descending Boston Center
Mon 05:01:21 PM 41.6236 -73.7592 159° South 347 399 10,200 -1,650 Descending Boston Center
Mon 05:02:21 PM 41.5306 -73.7128 160° South 347 399 8,500 -1,100 Descending Boston Center
Mon 05:03:21 PM 41.4661 -73.6783 158° South 295 339 8,000 -250 Descending Boston Center
Mon 05:04:21 PM 41.3853 -73.6381 160° South 288 331 8,000 -808 Level Boston Center
Mon 05:05:05 PM 41.3333 -73.6333 176° South 277 319 6,600 -1,673 Descending New York TRACON
Mon 05:06:05 PM 41.3000 -73.7167 242° Southwest 268 308 5,100 -750 Descending New York TRACON
Mon 05:07:05 PM 41.2833 -73.8167 258° West 272 313 5,100  Level New York TRACON
Mon 05:08:05 PM 41.2667 -73.9000 255° West 260 299 5,100 -500 Level New York TRACON
Mon 05:09:05 PM 41.2500 -74.0000 258° West 244 281 4,100 -500 Descending New York TRACON
Mon 05:10:05 PM 41.2000 -74.0333 207° Southwest 231 266 4,100  Level New York TRACON
Mon 05:11:05 PM 41.1333 -74.0333 180° South 235 270 4,100 -800 Level New York TRACON
Mon 05:12:05 PM 41.0833 -74.0500 194° South 216 249 2,500 -1,000 Descending New York TRACON
Mon 05:13:05 PM 41.0167 -74.0500 180° South 202 232 2,100 -200 Descending New York TRACON
Mon 05:14:05 PM 40.9667 -74.0500 180° South 198 228 2,100 -350 Level New York TRACON
Mon 05:15:05 PM 40.9167 -74.0500 180° South 164 189 1,400 -700 Descending New York TRACON
Mon 05:16:05 PM 40.8833 -74.0500 180° South 124 143 700 -700 Descending New York TRACON
Mon 05:18:00 PM 40.8500 -74.0500 180° South  Level FlightAware Approximate
Mon 05:25:00 PM 40.8501 -74.0608 180° South  Level Estimated

Login

Don't have an account? Register now (free) for customized features, flight alerts, and more!